Latest Weather Observations for Moorabbin Airport

IDV60901

Issued at 3:41 pm EST Tuesday 26 September 2017 (issued every 10 minutes, with the page automatically refreshed every 10 minutes)

About weather observations | Map of Melbourne area stations | Latest observations for Melbourne area | Other Formats
Station Details ID: 086077 Name: MOORABBIN AIRPORT Lat: -37.98 Lon: 145.10 Height: 12.1 m
Data from the previous 72 hours. | See also: Recent months at Moorabbin Airport
Date/Time
EST
Temp
°C
App
Temp
°C
Dew
Point
°C
Rel
Hum
%
Delta-T
°C
Wind Press
QNH
hPa
Press
MSL
hPa
Rain since
9am
mm
Dir  Spd
km/h
Gust
km/h
Spd
kts
Gust
kts
26/03:30pm 13.9 9.1 2.8 47 4.9 SSW 17 24 9 13 1016.1 1016.1 0.0
26/03:00pm 14.1 9.5 3.6 49 4.7 SSW 17 22 9 12 1016.4 1016.4 0.0
26/02:30pm 14.1 9.1 3.6 49 4.8 SSW 19 24 10 13 1016.7 1016.7 0.0
26/02:00pm 14.3 9.8 4.0 50 4.7 SSW 17 26 9 14 1017.1 1017.1 0.0
26/01:30pm 13.8 9.5 3.0 48 4.8 SW 15 22 8 12 1017.4 1017.4 0.0
26/01:00pm 13.7 9.7 2.9 48 4.8 S 13 20 7 11 1017.7 1017.7 0.0
26/12:30pm 13.4 9.4 2.9 49 4.7 SW 13 19 7 10 1017.9 1017.9 0.0
26/12:00pm 12.7 8.7 4.7 58 3.7 SW 15 19 8 10 1017.9 1017.9 0.0
26/11:30am 13.1 9.9 5.3 59 3.6 WSW 11 15 6 8 1018.1 1018.1 0.0
26/11:00am 11.8 8.8 4.3 60 3.4 SW 9 17 5 9 1018.5 1018.5 0.0
26/10:30am 11.7 8.1 5.1 64 3.0 SW 13 19 7 10 1018.6 1018.6 0.0
26/10:00am 12.1 9.8 5.5 64 3.1 SW 7 9 4 5 1018.1 1018.1 0.0
26/09:30am 12.1 9.9 6.4 68 2.7 NNE 7 13 4 7 1018.3 1018.3 0.0
26/09:00am 10.2 7.2 5.8 74 2.0 N 11 17 6 9 1018.5 1018.5 0.2
26/08:30am 8.9 5.4 5.5 79 1.5 N 13 17 7 9 1018.4 1018.4 0.2
26/08:00am 8.0 4.8 5.1 82 1.3 N 11 13 6 7 1018.4 1018.4 0.2
26/07:30am 7.4 4.6 5.2 86 1.0 NNW 9 11 5 6 1018.2 1018.2 0.2
26/07:00am 6.5 3.6 4.8 89 0.7 N 9 13 5 7 1017.8 1017.8 0.2
26/06:30am 5.7 2.7 4.2 90 0.6 N 9 13 5 7 1017.6 1017.6 0.2
26/06:00am 4.8 1.2 3.1 89 0.7 N 11 13 6 7 1017.2 1017.2 0.2
26/05:30am 4.9 2.3 3.1 88 0.7 NNW 6 9 3 5 1016.9 1016.9 0.2
26/05:00am 5.2 2.0 3.2 87 0.8 N 9 11 5 6 1016.7 1016.7 0.2
26/04:30am 6.2 2.8 4.2 87 0.9 NNW 11 13 6 7 1016.5 1016.5 0.2
26/04:00am 5.8 2.3 3.6 86 0.9 N 11 13 6 7 1016.3 1016.3 0.2
26/03:30am 7.2 4.0 4.9 85 1.0 NW 11 13 6 7 1016.3 1016.3 0.2
26/03:00am 7.5 4.7 5.1 85 1.1 NNW 9 13 5 7 1016.2 1016.2 0.2
26/02:30am 7.6 5.2 5.2 85 1.1 NW 7 11 4 6 1016.2 1016.2 0.2
26/02:00am 7.4 4.9 4.7 83 1.2 NW 7 9 4 5 1016.2 1016.2 0.2
26/01:30am 7.7 4.4 4.8 82 1.3 NW 11 15 6 8 1016.1 1016.1 0.2
26/01:00am 8.0 5.2 5.1 82 1.3 WNW 9 13 5 7 1016.1 1016.1 0.2
26/12:30am 8.4 5.6 5.3 81 1.4 WNW 9 15 5 8 1016.0 1016.0 0.2
26/12:00am 8.7 6.0 5.4 80 1.5 WNW 9 13 5 7 1015.9 1015.9 0.2
 
Date/Time
EST
Temp
°C
App
Temp
°C
Dew
Point
°C
Rel
Hum
%
Delta-T
°C
Wind Press
QNH
hPa
Press
MSL
hPa
Rain since
9am
mm
Dir  Spd
km/h
Gust
km/h
Spd
kts
Gust
kts
25/11:30pm 8.9 5.4 5.5 79 1.5 WNW 13 17 7 9 1015.8 1015.8 0.2
25/11:00pm 9.0 6.3 5.4 78 1.6 WNW 9 13 5 7 1015.8 1015.8 0.2
25/10:30pm 9.5 6.7 5.3 75 1.9 WNW 9 11 5 6 1015.6 1015.6 0.2
25/10:00pm 10.0 7.3 5.4 73 2.1 WSW 9 15 5 8 1015.5 1015.5 0.2
25/09:30pm 10.3 7.0 4.7 68 2.5 W 11 15 6 8 1015.3 1015.3 0.2
25/09:00pm 10.9 7.3 5.0 67 2.7 W 13 17 7 9 1015.1 1015.1 0.2
25/08:30pm 11.3 7.9 6.0 70 2.5 SW 13 20 7 11 1014.9 1014.9 0.2
25/08:00pm 10.8 6.5 5.3 69 2.5 SW 17 24 9 13 1014.4 1014.4 0.2
25/07:30pm 11.2 7.0 5.7 69 2.5 SW 17 26 9 14 1014.0 1014.0 0.2
25/07:00pm 11.1 6.4 5.2 67 2.7 SW 19 28 10 15 1013.6 1013.6 0.2
25/06:30pm 11.0 7.3 6.4 73 2.2 SW 15 22 8 12 1013.4 1013.4 0.2
25/06:00pm 11.3 7.1 5.8 69 2.6 SW 17 30 9 16 1013.1 1013.1 0.2
25/05:30pm 11.0 5.9 6.0 71 2.3 SW 22 32 12 17 1012.7 1012.7 0.2
25/05:00pm 11.7 6.6 6.2 69 2.6 SW 22 32 12 17 1012.4 1012.4 0.2
25/04:30pm 12.3 7.3 6.6 68 2.7 SW 22 35 12 19 1011.9 1011.9 0.2
25/04:00pm 11.8 7.5 6.9 72 2.3 SW 19 33 10 18 1011.5 1011.5 0.2
25/03:30pm 11.4 7.2 7.5 77 1.9 SSW 19 28 10 15 1011.0 1011.0 0.2
25/03:00pm 11.3 7.1 8.3 82 1.5 SW 20 28 11 15 1010.8 1010.8 0.2
25/02:30pm 11.7 8.2 7.2 74 2.2 SW 15 28 8 15 1010.7 1010.7 0.0
25/02:00pm 12.8 9.1 8.1 73 2.3 WSW 17 24 9 13 1010.3 1010.3 0.0
25/01:30pm 12.4 8.5 8.5 77 1.9 SW 19 24 10 13 1010.1 1010.1 0.0
25/01:00pm 11.4 5.5 7.3 76 2.0 WSW 28 43 15 23 1009.9 1009.9 0.0
25/12:30pm 13.5 9.0 7.1 65 3.1 W 20 32 11 17 1009.4 1009.4 0.0
25/12:00pm 13.7 9.1 6.6 62 3.4 W 20 35 11 19 1009.3 1009.3 0.0
25/11:30am 12.2 6.5 6.7 69 2.6 WSW 26 41 14 22 1009.5 1009.5 0.0
25/11:00am 13.8 9.5 7.1 64 3.3 W 19 28 10 15 1009.1 1009.1 0.0
25/10:30am 12.8 8.8 6.8 67 2.9 W 17 26 9 14 1009.1 1009.1 0.0
25/10:00am 12.8 8.6 7.5 70 2.6 W 19 26 10 14 1008.9 1008.9 0.0
25/09:30am 12.7 8.1 8.0 73 2.3 W 22 32 12 17 1008.6 1008.6 0.0
25/09:00am 12.9 9.1 9.2 78 1.9 WNW 19 28 10 15 1008.1 1008.1 4.4
25/08:30am 11.9 8.0 9.5 85 1.2 W 20 32 11 17 1007.6 1007.6 4.4
25/08:00am 11.6 8.4 9.9 89 0.9 WNW 17 24 9 13 1007.3 1007.3 4.4
25/07:30am 11.1 7.8 9.5 90 0.8 WNW 17 24 9 13 1006.8 1006.8 4.4
25/07:00am 10.6 7.2 9.2 91 0.7 WNW 17 26 9 14 1006.4 1006.4 4.4
25/06:30am 10.5 7.5 9.1 91 0.7 NW 15 22 8 12 1005.9 1005.9 4.4
25/06:00am 10.7 7.0 9.3 91 0.7 WNW 19 26 10 14 1005.5 1005.5 3.8
25/05:30am 10.6 6.6 9.0 90 0.8 WNW 20 30 11 16 1005.2 1005.2 3.6
25/05:00am 10.9 7.4 8.8 87 1.0 W 17 26 9 14 1005.0 1005.0 1.2
25/04:35am 11.3 7.3 8.3 82 1.5 WNW 19 28 10 15 1004.6 1004.6 0.6
25/04:30am 11.3 7.1 8.2 81 1.5 WNW 20 30 11 16 1004.5 1004.5 0.6
25/04:20am 11.6 6.4 7.3 75 2.1 W 24 37 13 20 1004.5 1004.5 0.2
25/04:00am 12.8 7.6 7.3 69 2.7 WNW 24 39 13 21 1004.1 1004.1 0.0
25/03:30am 12.9 8.4 7.1 68 2.8 WNW 20 33 11 18 1003.9 1003.9 0.0
25/03:00am 13.1 8.3 7.3 68 2.8 WNW 22 32 12 17 1003.9 1003.9 0.0
25/02:30am 13.0 8.5 7.0 67 2.9 NW 20 30 11 16 1003.7 1003.7 0.0
25/02:00am 13.6 9.0 6.7 63 3.3 WNW 20 32 11 17 1003.6 1003.6 0.0
25/01:30am 13.8 8.9 6.9 63 3.3 WNW 22 33 12 18 1003.6 1003.6 0.0
25/01:00am 14.0 9.1 6.8 62 3.5 WNW 22 33 12 18 1003.4 1003.4 0.0
25/12:30am 14.1 9.6 6.9 62 3.5 NW 20 30 11 16 1003.3 1003.3 0.0
25/12:00am 14.2 9.9 7.0 62 3.5 NW 19 30 10 16 1003.1 1003.1 0.0
 
Date/Time
EST
Temp
°C
App
Temp
°C
Dew
Point
°C
Rel
Hum
%
Delta-T
°C
Wind Press
QNH
hPa
Press
MSL
hPa
Rain since
9am
mm
Dir  Spd
km/h
Gust
km/h
Spd
kts
Gust
kts
24/11:30pm 14.3 9.8 7.1 62 3.5 NW 20 32 11 17 1002.9 1002.9 0.0
24/11:00pm 14.5 9.3 7.1 61 3.6 NW 24 33 13 18 1002.6 1002.6 0.0
24/10:30pm 14.6 10.2 7.2 61 3.6 NW 20 35 11 19 1002.4 1002.4 0.0
24/10:00pm 14.6 9.7 6.9 60 3.8 NW 22 32 12 17 1002.2 1002.2 0.0
24/09:30pm 14.7 9.8 6.8 59 3.8 NW 22 35 12 19 1001.7 1001.7 0.0
24/09:00pm 14.8 9.4 6.4 57 4.1 NW 24 39 13 21 1001.2 1001.2 0.0
24/08:36pm 15.4 8.4 5.9 53 4.6 NW 32 50 17 27 1000.5 1000.5 0.0
24/08:30pm 15.3 9.0 5.8 53 4.5 NW 28 43 15 23 1000.3 1000.3 0.0
24/08:07pm 15.9 8.2 5.2 49 5.1 NW 35 56 19 30 999.6 999.6 0.0
24/08:00pm 16.0 8.2 5.0 48 5.2 NW 35 52 19 28 999.5 999.5 0.0
24/07:35pm 16.5 9.6 4.5 45 5.6 NW 30 52 16 28 999.2 999.2 0.0
24/07:30pm 16.6 9.8 4.9 46 5.6 NW 30 46 16 25 999.1 999.1 0.0
24/07:17pm 16.2 9.7 4.9 47 5.3 NW 28 46 15 25 998.9 998.9 0.0
24/07:00pm 16.4 10.4 5.1 47 5.4 NW 26 43 14 23 998.5 998.5 0.0
24/06:30pm 16.7 10.2 4.7 45 5.7 NW 28 52 15 28 998.2 998.2 0.0
24/06:00pm 17.3 9.7 3.9 41 6.3 NW 33 59 18 32 997.7 997.7 0.0
24/05:30pm 17.9 10.3 4.1 40 6.5 NW 33 54 18 29 997.3 997.3 0.0
24/05:00pm 18.0 9.1 5.2 43 6.2 NW 41 69 22 37 996.6 996.6 0.0
24/04:30pm 17.7 9.4 5.9 46 5.8 NNW 39 61 21 33 996.8 996.8 0.0
24/04:00pm 17.4 9.0 5.7 46 5.7 NW 39 65 21 35 996.8 996.8 0.0
24/03:30pm 17.5 9.7 4.8 43 6.1 NNW 35 54 19 29 996.8 996.8 0.0
24/03:00pm 18.5 9.2 5.7 43 6.3 NNW 44 69 24 37 996.7 996.7 0.0
24/02:30pm 19.1 10.5 4.8 39 6.9 NNW 39 57 21 31 996.8 996.8 0.0
24/02:24pm 18.0 10.5 4.6 41 6.4 NW 33 56 18 30 996.9 996.9 0.0
24/02:00pm 18.2 11.0 5.1 42 6.4 NW 32 46 17 25 997.2 997.2 0.0
24/01:38pm 17.5 10.3 4.8 43 6.1 NNW 32 50 17 27 997.5 997.5 0.0
24/01:30pm 17.6 9.9 3.5 39 6.6 NNW 33 50 18 27 997.4 997.4 0.0
24/01:00pm 18.2 10.6 3.7 38 6.8 NW 33 52 18 28 998.2 998.2 0.0
24/12:30pm 17.4 10.4 4.0 41 6.3 NW 30 50 16 27 998.4 998.4 0.0
24/12:25pm 17.4 9.9 3.7 40 6.4 NW 32 50 17 27 998.3 998.3 0.0
24/12:00pm 17.7 9.7 3.9 40 6.5 NNW 35 50 19 27 998.4 998.4 0.0
24/11:30am 17.4 11.0 5.0 44 5.9 NNW 28 43 15 23 998.6 998.6 0.0
24/11:00am 16.2 9.9 5.8 50 5.0 NNW 28 41 15 22 998.9 998.9 0.0
24/10:30am 16.1 10.0 6.5 53 4.7 NW 28 39 15 21 999.3 999.3 0.0
24/10:00am 15.2 9.0 6.0 54 4.5 NW 28 43 15 23 999.4 999.4 0.0
24/09:30am 15.2 9.1 6.5 56 4.2 NW 28 46 15 25 999.7 999.7 0.0
24/09:00am 14.5 7.5 6.1 57 4.1 NW 32 50 17 27 999.4 999.4 0.4
24/08:44am 14.3 7.9 7.1 62 3.5 NW 30 52 16 28 999.3 999.3 0.4
24/08:30am 13.4 8.9 8.7 73 2.4 NW 22 35 12 19 999.3 999.3 0.4
24/08:00am 11.7 5.2 6.6 71 2.4 NW 30 41 16 22 999.2 999.2 0.0
24/07:46am 13.4 6.6 7.6 68 2.8 NNW 33 52 18 28 998.2 998.2 0.0
24/07:30am 14.1 7.5 7.9 66 3.1 NNW 32 48 17 26 997.6 997.6 0.0
24/07:27am 13.8 7.5 7.6 66 3.0 NNW 30 48 16 26 997.5 997.5 0.0
24/07:00am 12.9 6.9 6.9 67 2.9 N 28 37 15 20 997.7 997.7 0.0
24/06:30am 13.1 7.1 6.9 66 3.0 N 28 39 15 21 997.1 997.1 0.0
24/06:00am 13.3 7.6 6.6 64 3.2 N 26 35 14 19 997.7 997.7 0.0
24/05:30am 13.4 7.2 6.3 62 3.4 N 28 39 15 21 997.8 997.8 0.0
24/05:00am 13.3 7.9 6.2 62 3.4 N 24 30 13 16 998.4 998.4 0.0
24/04:30am 13.7 9.0 5.1 56 4.0 N 19 28 10 15 998.6 998.6 0.0
24/04:00am 13.9 9.2 5.0 55 4.2 NW 19 24 10 13 998.5 998.5 0.0
24/03:30am 14.3 9.0 5.1 54 4.3 NW 22 32 12 17 998.6 998.6 0.0
24/03:00am 14.4 9.1 5.2 54 4.4 NW 22 32 12 17 998.7 998.7 0.0
24/02:30am 14.7 9.6 5.8 55 4.2 NW 22 32 12 17 998.8 998.8 0.0
24/02:00am 14.7 10.6 6.0 56 4.2 NW 17 26 9 14 998.8 998.8 0.0
24/01:30am 14.7 10.9 6.0 56 4.2 NW 15 22 8 12 998.8 998.8 0.0
24/01:00am 15.3 10.7 6.6 56 4.3 NW 20 30 11 16 998.8 998.8 0.0
24/12:30am 14.8 12.2 7.8 63 3.5 NW 11 19 6 10 998.8 998.8 0.0
24/12:00am 15.3 12.9 8.5 64 3.5 NW 11 17 6 9 998.9 998.9 0.0
 
Date/Time
EST
Temp
°C
App
Temp
°C
Dew
Point
°C
Rel
Hum
%
Delta-T
°C
Wind Press
QNH
hPa
Press
MSL
hPa
Rain since
9am
mm
Dir  Spd
km/h
Gust
km/h
Spd
kts
Gust
kts
23/11:30pm 15.6 13.0 9.3 66 3.2 NW 13 22 7 12 998.8 998.8 0.0
23/11:00pm 15.4 13.4 10.0 70 2.8 NW 11 15 6 8 998.6 998.6 0.0
23/10:30pm 15.5 13.7 10.7 73 2.5 NW 11 19 6 10 998.6 998.6 0.0
23/10:00pm 14.5 13.2 10.1 75 2.3 N 7 9 4 5 998.8 998.8 0.0
23/09:30pm 15.3 13.8 10.5 73 2.5 NW 9 13 5 7 998.7 998.7 0.0
23/09:00pm 16.0 14.2 10.7 71 2.8 NW 11 17 6 9 998.7 998.7 0.0
23/08:30pm 15.7 13.8 10.5 71 2.7 NW 11 19 6 10 998.5 998.5 0.0
23/08:00pm 15.4 13.4 10.0 70 2.8 NW 11 13 6 7 998.3 998.3 0.0
23/07:30pm 15.7 12.9 10.0 69 3.0 W 15 22 8 12 998.1 998.1 0.0
23/07:00pm 15.6 13.3 10.4 71 2.8 W 13 19 7 10 997.5 997.5 0.0
23/06:30pm 14.6 12.2 10.2 75 2.3 WSW 13 20 7 11 997.1 997.1 0.0
23/06:00pm 14.7 10.6 10.1 74 2.4 SW 22 30 12 16 995.9 995.9 0.0
23/05:30pm 15.3 9.2 10.3 72 2.6 SW 33 46 18 25 994.2 994.2 0.0
23/05:25pm 15.5 10.5 11.1 75 2.3 SW 28 46 15 25 994.0 994.0 0.0
23/05:00pm 15.4 9.8 12.0 80 1.9 SW 33 48 18 26 993.1 993.1 0.0
23/04:34pm 16.9 11.9 11.0 68 3.2 SW 28 46 15 25 991.1 991.1 0.0
23/04:30pm 17.8 14.1 11.6 67 3.4 SW 22 41 12 22 990.6 990.6 0.0
23/04:00pm 22.1 20.8 11.2 50 6.1 WSW 9 15 5 8 989.2 989.2 0.0

Latest Capital City Observations: Canberra | Sydney | Melbourne | Brisbane | Adelaide | Perth | Hobart | Darwin

Other Formats:

Comma delimited format used in spreadsheet applications
http://www.bom.gov.au/fwo/IDV60901/IDV60901.94870.axf

JavaScript Object Notation format (JSON) in row-major order
http://www.bom.gov.au/fwo/IDV60901/IDV60901.94870.json